Time;durP1;ratioP1;P1;durP2;ratioP2;P2;SDS_P1;SDS_P2;PMS_P1;PMS_P2;Temp;Humidity;BMP_temperature;BMP_pressure;BME280_temperature;BME280_humidity;BME280_pressure;Samples;Min_cycle;Max_cycle;Signal;HPM_P1;HPM_P2
2022/11/26 00:03:28;;;;;;;31.20;16.87;;;;;;;;;;10393082;28;21354;-85
2022/11/26 00:08:32;;;;;;;28.45;16.38;;;;;;;;;;10398950;28;20707;-84
2022/11/26 00:13:34;;;;;;;25.50;15.18;;;;;;;;;;10384187;28;20034;-84
2022/11/26 00:18:34;;;;;;;29.52;17.50;;;;;;;;;;10387944;28;20026;-82
2022/11/26 00:23:35;;;;;;;24.90;14.43;;;;;;;;;;10425052;28;20033;-80
2022/11/26 00:28:36;;;;;;;32.78;14.93;;;;;;;;;;10420740;28;20114;-84
2022/11/26 00:33:37;;;;;;;33.25;15.88;;;;;;;;;;10391785;28;20034;-87
2022/11/26 00:38:38;;;;;;;33.50;16.42;;;;;;;;;;10392365;28;20026;-86
2022/11/26 00:43:38;;;;;;;27.80;15.48;;;;;;;;;;10354517;28;20038;-85
2022/11/26 00:48:39;;;;;;;26.98;15.30;;;;;;;;;;10345266;28;20133;-84
2022/11/26 00:53:39;;;;;;;27.83;16.63;;;;;;;;;;10366185;28;20034;-84
2022/11/26 00:58:42;;;;;;;39.22;17.67;;;;;;;;;;10364692;28;20292;-85
2022/11/26 01:03:43;;;;;;;26.45;15.35;;;;;;;;;;10382787;28;20038;-84
2022/11/26 01:08:44;;;;;;;31.60;16.58;;;;;;;;;;10380227;28;20039;-83
2022/11/26 01:13:46;;;;;;;24.90;15.40;;;;;;;;;;10382372;28;20045;-85
2022/11/26 01:18:48;;;;;;;25.88;14.93;;;;;;;;;;10378485;28;20117;-85
2022/11/26 01:23:50;;;;;;;39.97;17.23;;;;;;;;;;10361653;28;20045;-85
2022/11/26 01:28:50;;;;;;;30.33;14.93;;;;;;;;;;10383668;28;20038;-85
2022/11/26 01:33:51;;;;;;;26.90;15.68;;;;;;;;;;10356494;28;20026;-85
2022/11/26 01:38:53;;;;;;;33.28;17.70;;;;;;;;;;10393084;28;20073;-85
2022/11/26 01:43:55;;;;;;;37.58;18.55;;;;;;;;;;10423036;28;20041;-83
2022/11/26 01:49:13;;;;;;;27.83;17.57;;;;;;;;;;10640981;22;20045;-83
2022/11/26 01:54:14;;;;;;;24.90;15.32;;;;;;;;;;10444280;22;20042;-84
2022/11/26 01:59:25;;;;;;;23.67;14.93;;;;;;;;;;10824029;22;20059;-80
2022/11/26 02:04:34;;;;;;;28.17;15.88;;;;;;;;;;10436935;28;20040;-86
2022/11/26 02:09:34;;;;;;;34.95;17.33;;;;;;;;;;10407661;28;20259;-80
2022/11/26 02:14:37;;;;;;;29.75;16.38;;;;;;;;;;10393271;28;20042;-80
2022/11/26 02:19:51;;;;;;;31.13;16.25;;;;;;;;;;10414191;28;20040;-83
2022/11/26 02:24:51;;;;;;;24.10;13.80;;;;;;;;;;10454793;28;20029;-80
2022/11/26 02:30:01;;;;;;;30.40;15.23;;;;;;;;;;10460817;28;20057;-81
2022/11/26 02:35:05;;;;;;;37.00;16.33;;;;;;;;;;10446579;28;20045;-84
2022/11/26 02:40:07;;;;;;;26.65;15.00;;;;;;;;;;10427441;28;20033;-87
2022/11/26 02:45:09;;;;;;;28.25;15.50;;;;;;;;;;10457200;28;20018;-82
2022/11/26 02:50:21;;;;;;;23.27;13.17;;;;;;;;;;10440136;28;20030;-81
2022/11/26 02:55:24;;;;;;;27.77;14.88;;;;;;;;;;10409979;28;20390;-83
2022/11/26 03:00:25;;;;;;;34.53;16.13;;;;;;;;;;10397804;28;20045;-83
2022/11/26 03:05:26;;;;;;;25.70;13.65;;;;;;;;;;10417744;28;20029;-83
2022/11/26 03:10:27;;;;;;;24.25;12.65;;;;;;;;;;10406039;28;20172;-83
2022/11/26 03:15:27;;;;;;;25.85;13.30;;;;;;;;;;10410107;28;20188;-88
2022/11/26 03:20:28;;;;;;;21.70;12.10;;;;;;;;;;10412411;28;20515;-87
2022/11/26 03:25:28;;;;;;;26.88;12.13;;;;;;;;;;10410713;28;20034;-85
2022/11/26 03:30:29;;;;;;;23.58;11.85;;;;;;;;;;10392043;28;20041;-84
2022/11/26 03:35:29;;;;;;;17.83;9.60;;;;;;;;;;10419673;28;20073;-84
2022/11/26 03:40:29;;;;;;;16.98;9.80;;;;;;;;;;10393695;28;20386;-82
2022/11/26 03:45:30;;;;;;;17.50;9.98;;;;;;;;;;10409456;28;20038;-83
2022/11/26 03:50:30;;;;;;;24.17;11.32;;;;;;;;;;10389157;28;20033;-84
2022/11/26 03:55:31;;;;;;;26.92;11.73;;;;;;;;;;10413540;28;20041;-86
2022/11/26 04:00:31;;;;;;;24.80;11.53;;;;;;;;;;10410994;28;20049;-85
2022/11/26 04:05:31;;;;;;;21.40;10.70;;;;;;;;;;10409543;28;20405;-82
2022/11/26 04:10:32;;;;;;;29.27;11.70;;;;;;;;;;10409798;28;20100;-84
2022/11/26 04:15:33;;;;;;;28.48;11.35;;;;;;;;;;10417566;28;20308;-83
2022/11/26 04:20:34;;;;;;;21.30;10.90;;;;;;;;;;10466320;28;20025;-81
2022/11/26 04:25:34;;;;;;;19.85;10.30;;;;;;;;;;10444528;28;20045;-87
2022/11/26 04:30:35;;;;;;;23.30;11.35;;;;;;;;;;10389778;28;20371;-86
2022/11/26 04:35:36;;;;;;;20.95;10.18;;;;;;;;;;10423868;28;20049;-81
2022/11/26 04:40:36;;;;;;;18.10;10.15;;;;;;;;;;10416255;28;20477;-82
2022/11/26 04:45:38;;;;;;;19.90;10.20;;;;;;;;;;10415697;28;20116;-84
2022/11/26 04:50:42;;;;;;;21.58;10.63;;;;;;;;;;10448349;28;20014;-84
2022/11/26 04:55:43;;;;;;;22.90;10.27;;;;;;;;;;10452490;28;20072;-83
2022/11/26 05:00:43;;;;;;;19.58;9.50;;;;;;;;;;10432444;28;20041;-84
2022/11/26 05:05:45;;;;;;;21.73;9.93;;;;;;;;;;10448535;28;20022;-82
2022/11/26 05:10:46;;;;;;;21.15;11.15;;;;;;;;;;10462575;28;20029;-82
2022/11/26 05:15:46;;;;;;;25.73;10.38;;;;;;;;;;10432226;28;20037;-89
2022/11/26 05:20:47;;;;;;;20.25;10.70;;;;;;;;;;10418223;28;20076;-88
2022/11/26 05:25:48;;;;;;;22.10;10.93;;;;;;;;;;10442996;28;20009;-86
2022/11/26 05:30:56;;;;;;;23.88;10.77;;;;;;;;;;10465356;28;20033;-82
2022/11/26 05:35:56;;;;;;;23.90;11.45;;;;;;;;;;10427181;28;20045;-82
2022/11/26 05:40:58;;;;;;;21.00;11.38;;;;;;;;;;10414934;28;20129;-82
2022/11/26 05:46:05;;;;;;;18.25;10.93;;;;;;;;;;10410110;28;20112;-83
2022/11/26 05:51:06;;;;;;;19.08;10.48;;;;;;;;;;10401127;28;20041;-83
2022/11/26 05:56:07;;;;;;;18.02;10.65;;;;;;;;;;10416276;28;20046;-86
2022/11/26 06:01:08;;;;;;;21.40;10.23;;;;;;;;;;10401060;28;20055;-83
2022/11/26 06:06:08;;;;;;;19.23;10.05;;;;;;;;;;10411134;28;20296;-83
2022/11/26 06:11:11;;;;;;;22.08;11.35;;;;;;;;;;10411346;28;20045;-84
2022/11/26 06:16:11;;;;;;;20.73;10.63;;;;;;;;;;10411186;28;20063;-83
2022/11/26 06:21:11;;;;;;;21.47;10.00;;;;;;;;;;10409201;28;20129;-85
2022/11/26 06:26:12;;;;;;;20.10;10.03;;;;;;;;;;10413999;28;20057;-83
2022/11/26 06:31:12;;;;;;;21.45;9.88;;;;;;;;;;10396852;28;20304;-83
2022/11/26 06:36:13;;;;;;;21.67;9.35;;;;;;;;;;10401906;28;20076;-81
2022/11/26 06:41:13;;;;;;;16.67;8.80;;;;;;;;;;10423669;28;20083;-82
2022/11/26 06:46:13;;;;;;;19.60;9.07;;;;;;;;;;10426785;28;20035;-82
2022/11/26 06:51:14;;;;;;;17.17;9.20;;;;;;;;;;10399745;28;20288;-82
2022/11/26 06:56:15;;;;;;;25.50;10.27;;;;;;;;;;10404994;28;20399;-82
2022/11/26 07:01:17;;;;;;;19.67;10.25;;;;;;;;;;10422874;28;20061;-87
2022/11/26 07:06:19;;;;;;;22.50;11.02;;;;;;;;;;10438112;28;20112;-81
2022/11/26 07:11:20;;;;;;;19.85;9.95;;;;;;;;;;10442183;28;20034;-75
2022/11/26 07:16:20;;;;;;;18.20;8.82;;;;;;;;;;10498944;22;20037;-83
2022/11/26 07:21:24;;;;;;;24.50;10.38;;;;;;;;;;10437680;28;20022;-82
2022/11/26 07:26:26;;;;;;;22.35;10.80;;;;;;;;;;10390215;28;20030;-82
2022/11/26 07:31:28;;;;;;;14.57;8.95;;;;;;;;;;10412584;28;20046;-82
2022/11/26 07:36:41;;;;;;;16.92;8.35;;;;;;;;;;10512175;22;20033;-80
2022/11/26 07:41:44;;;;;;;20.70;10.23;;;;;;;;;;10396801;28;20509;-86
2022/11/26 07:46:44;;;;;;;20.30;9.87;;;;;;;;;;10398485;28;20303;-84
2022/11/26 07:51:45;;;;;;;18.30;9.88;;;;;;;;;;10417101;28;20026;-83
2022/11/26 07:56:45;;;;;;;20.65;9.35;;;;;;;;;;10425211;28;20366;-87
2022/11/26 08:01:46;;;;;;;20.13;10.53;;;;;;;;;;10433325;28;20091;-85
2022/11/26 08:06:47;;;;;;;22.05;11.57;;;;;;;;;;10436316;28;20295;-83
2022/11/26 08:11:48;;;;;;;27.00;11.52;;;;;;;;;;10400369;28;20048;-83
2022/11/26 08:16:48;;;;;;;21.23;10.63;;;;;;;;;;10432954;28;20045;-84
2022/11/26 08:21:51;;;;;;;20.17;10.85;;;;;;;;;;10440230;28;20021;-84
2022/11/26 08:26:53;;;;;;;13.98;8.80;;;;;;;;;;10423985;28;20038;-80
2022/11/26 08:31:54;;;;;;;16.98;9.23;;;;;;;;;;10396947;28;20033;-84
2022/11/26 08:36:54;;;;;;;19.23;9.47;;;;;;;;;;10398696;28;20056;-81
2022/11/26 08:41:55;;;;;;;19.40;10.05;;;;;;;;;;10415770;28;20367;-80
2022/11/26 08:46:56;;;;;;;24.23;10.57;;;;;;;;;;10394309;28;20041;-82
2022/11/26 08:51:56;;;;;;;27.53;11.23;;;;;;;;;;10395554;28;20045;-80
2022/11/26 08:56:56;;;;;;;21.33;10.70;;;;;;;;;;10411972;28;20565;-82
2022/11/26 09:01:57;;;;;;;25.20;12.30;;;;;;;;;;10418943;28;20041;-82
2022/11/26 09:06:57;;;;;;;17.03;10.30;;;;;;;;;;10435791;28;20025;-81
2022/11/26 09:11:59;;;;;;;22.00;11.17;;;;;;;;;;10429022;28;20277;-81
2022/11/26 09:17:00;;;;;;;24.27;11.95;;;;;;;;;;10404713;28;20312;-83
2022/11/26 09:22:00;;;;;;;19.15;9.73;;;;;;;;;;10424435;28;20026;-83
2022/11/26 09:27:02;;;;;;;21.00;10.15;;;;;;;;;;10431419;28;20033;-82
2022/11/26 09:32:03;;;;;;;21.33;10.68;;;;;;;;;;10427264;28;20075;-82
2022/11/26 09:37:03;;;;;;;20.85;11.45;;;;;;;;;;10448359;28;20049;-82
2022/11/26 09:42:23;;;;;;;19.85;11.02;;;;;;;;;;10428096;28;20041;-79
2022/11/26 09:52:59;;;;;;;20.20;11.75;;;;;;;;;;10419451;28;20045;-80
2022/11/26 09:58:01;;;;;;;23.35;12.50;;;;;;;;;;10396603;28;20058;-81
2022/11/26 10:03:10;;;;;;;24.20;11.82;;;;;;;;;;10397486;28;20053;-82
2022/11/26 10:08:19;;;;;;;24.98;13.85;;;;;;;;;;10380962;28;20038;-81
2022/11/26 10:13:29;;;;;;;19.75;11.32;;;;;;;;;;10347048;28;20133;-81
2022/11/26 10:18:37;;;;;;;21.75;11.23;;;;;;;;;;10358831;28;20057;-81
2022/11/26 10:24:01;;;;;;;20.83;11.48;;;;;;;;;;10357811;28;20038;-81
2022/11/26 10:29:21;;;;;;;19.77;11.38;;;;;;;;;;10375314;28;20459;-79
2022/11/26 10:34:38;;;;;;;23.55;12.07;;;;;;;;;;10373349;28;20050;-81
2022/11/26 10:39:38;;;;;;;17.55;9.65;;;;;;;;;;10355961;28;20034;-81
2022/11/26 10:44:39;;;;;;;17.37;10.03;;;;;;;;;;10386224;28;20064;-82
2022/11/26 10:49:40;;;;;;;18.20;9.75;;;;;;;;;;10397912;28;20794;-83
2022/11/26 10:54:40;;;;;;;19.10;10.20;;;;;;;;;;10383097;28;20069;-81
2022/11/26 10:59:51;;;;;;;18.40;10.60;;;;;;;;;;10384216;28;20287;-82
2022/11/26 11:04:53;;;;;;;19.88;11.18;;;;;;;;;;10372310;28;20402;-82
2022/11/26 11:10:02;;;;;;;17.23;9.52;;;;;;;;;;10369338;28;20059;-82
2022/11/26 11:15:17;;;;;;;16.67;9.55;;;;;;;;;;10370887;28;20042;-83
2022/11/26 11:20:17;;;;;;;18.13;10.07;;;;;;;;;;10373220;28;20145;-83
2022/11/26 11:25:21;;;;;;;21.00;9.83;;;;;;;;;;10373429;28;20124;-81
2022/11/26 11:30:26;;;;;;;19.77;11.32;;;;;;;;;;10353507;28;20045;-83
2022/11/26 11:35:30;;;;;;;21.33;11.18;;;;;;;;;;10382359;28;20053;-87
2022/11/26 11:40:39;;;;;;;19.25;11.05;;;;;;;;;;10399279;28;20030;-81
2022/11/26 11:45:40;;;;;;;20.42;11.13;;;;;;;;;;10387324;28;20081;-79
2022/11/26 11:50:42;;;;;;;21.25;11.35;;;;;;;;;;10414923;28;20029;-80
2022/11/26 11:55:49;;;;;;;18.65;10.60;;;;;;;;;;10405814;28;20045;-85
2022/11/26 12:00:56;;;;;;;21.08;10.32;;;;;;;;;;10412209;28;20018;-82
2022/11/26 12:06:05;;;;;;;21.83;11.65;;;;;;;;;;10815364;22;20061;-83
2022/11/26 12:11:05;;;;;;;17.77;9.85;;;;;;;;;;10485989;22;20032;-80
2022/11/26 12:16:06;;;;;;;21.88;10.90;;;;;;;;;;10969936;22;20042;-80
2022/11/26 12:21:09;;;;;;;;;;;;;;;;;;10429289;28;20022;-83
2022/11/26 12:26:12;;;;;;;17.03;10.27;;;;;;;;;;10364286;28;20342;-82
2022/11/26 12:31:15;;;;;;;21.38;11.55;;;;;;;;;;10362670;28;20301;-84
2022/11/26 12:36:16;;;;;;;;;;;;;;;;;;10336240;28;20113;-82
2022/11/26 12:41:36;;;;;;;23.90;12.02;;;;;;;;;;10359850;28;19948;-81
2022/11/26 12:46:40;;;;;;;20.75;10.23;;;;;;;;;;10357128;28;20169;-82
2022/11/26 12:51:40;;;;;;;;;;;;;;;;;;10370844;28;20035;-81
2022/11/26 12:56:47;;;;;;;19.75;10.70;;;;;;;;;;10346151;28;19949;-82
2022/11/26 13:01:48;;;;;;;18.92;10.65;;;;;;;;;;10325318;28;20042;-83
2022/11/26 13:07:03;;;;;;;19.38;10.10;;;;;;;;;;10310648;28;20046;-83
2022/11/26 13:12:07;;;;;;;21.65;10.38;;;;;;;;;;10326884;28;20041;-82
2022/11/26 13:17:08;;;;;;;;;;;;;;;;;;10305799;28;20046;-83
2022/11/26 13:22:25;;;;;;;20.67;10.10;;;;;;;;;;10327583;28;20004;-82
2022/11/26 13:27:32;;;;;;;24.10;11.68;;;;;;;;;;10337242;28;20471;-83
2022/11/26 13:32:48;;;;;;;19.63;9.70;;;;;;;;;;10313663;28;20050;-82
2022/11/26 13:38:07;;;;;;;18.75;10.63;;;;;;;;;;10366321;28;20331;-81
2022/11/26 13:43:27;;;;;;;18.00;9.00;;;;;;;;;;10365902;28;20042;-81
2022/11/26 13:48:33;;;;;;;19.48;9.75;;;;;;;;;;10341610;28;20039;-83
2022/11/26 13:53:40;;;;;;;20.38;11.05;;;;;;;;;;10315383;28;20038;-84
2022/11/26 13:58:43;;;;;;;24.63;12.43;;;;;;;;;;10329037;28;20050;-82
2022/11/26 14:03:45;;;;;;;20.00;11.20;;;;;;;;;;10324536;28;20065;-83
2022/11/26 14:08:49;;;;;;;21.67;10.80;;;;;;;;;;10343863;28;20046;-82
2022/11/26 14:14:11;;;;;;;21.38;10.45;;;;;;;;;;10370961;28;20047;-81
2022/11/26 14:19:11;;;;;;;17.27;9.98;;;;;;;;;;10351425;28;20058;-81
2022/11/26 14:24:31;;;;;;;19.10;10.38;;;;;;;;;;10346546;28;20097;-81
2022/11/26 14:29:32;;;;;;;22.00;11.40;;;;;;;;;;10326811;28;20034;-82
2022/11/26 14:34:38;;;;;;;19.17;9.90;;;;;;;;;;10313155;28;20407;-82
2022/11/26 14:39:39;;;;;;;19.75;9.80;;;;;;;;;;10309051;28;20086;-83
2022/11/26 14:44:39;;;;;;;21.10;10.20;;;;;;;;;;10315283;28;20054;-82
2022/11/26 14:49:41;;;;;;;21.75;10.77;;;;;;;;;;10302873;28;20045;-83
2022/11/26 14:54:44;;;;;;;20.95;9.30;;;;;;;;;;10316583;28;20134;-83
2022/11/26 14:59:59;;;;;;;18.05;10.32;;;;;;;;;;10331816;28;20030;-83
2022/11/26 15:05:00;;;;;;;16.00;10.02;;;;;;;;;;10313111;28;20027;-82
2022/11/26 15:10:02;;;;;;;20.55;11.25;;;;;;;;;;10361271;28;20042;-83
2022/11/26 15:15:03;;;;;;;19.77;9.70;;;;;;;;;;10334531;28;20930;-82
2022/11/26 15:20:07;;;;;;;25.20;11.55;;;;;;;;;;10310458;28;20042;-81
2022/11/26 15:25:15;;;;;;;22.83;11.57;;;;;;;;;;10316013;28;20054;-85
2022/11/26 15:30:21;;;;;;;21.75;12.23;;;;;;;;;;10339505;28;20046;-82
2022/11/26 15:35:22;;;;;;;21.50;11.05;;;;;;;;;;10414787;28;20042;-83
2022/11/26 15:40:24;;;;;;;23.70;11.95;;;;;;;;;;10362985;28;20535;-80
2022/11/26 15:45:36;;;;;;;22.97;12.43;;;;;;;;;;10354088;28;20038;-83
2022/11/26 15:50:37;;;;;;;26.27;12.93;;;;;;;;;;10368299;28;20033;-84
2022/11/26 15:55:38;;;;;;;25.55;12.02;;;;;;;;;;10378172;28;20045;-81
2022/11/26 16:00:39;;;;;;;27.63;12.10;;;;;;;;;;10378231;28;20393;-83
2022/11/26 16:05:40;;;;;;;18.73;11.73;;;;;;;;;;10390568;28;20100;-81
2022/11/26 16:10:52;;;;;;;19.73;11.20;;;;;;;;;;10366557;28;20030;-83
2022/11/26 16:15:56;;;;;;;23.65;12.05;;;;;;;;;;10361073;28;20046;-82
2022/11/26 16:21:07;;;;;;;22.80;13.57;;;;;;;;;;10364925;28;20041;-81
2022/11/26 16:26:14;;;;;;;21.92;11.55;;;;;;;;;;10375305;28;20026;-82
2022/11/26 16:31:15;;;;;;;27.95;13.50;;;;;;;;;;10362905;28;20085;-85
2022/11/26 16:36:24;;;;;;;24.23;14.32;;;;;;;;;;10359284;28;20073;-85
2022/11/26 16:41:27;;;;;;;23.13;13.50;;;;;;;;;;10365471;28;20035;-86
2022/11/26 16:46:27;;;;;;;22.63;13.03;;;;;;;;;;10395791;28;20098;-83
2022/11/26 16:51:28;;;;;;;24.70;13.00;;;;;;;;;;10409159;28;20284;-84
2022/11/26 16:56:36;;;;;;;22.48;12.85;;;;;;;;;;10414349;28;20091;-86
2022/11/26 17:07:00;;;;;;;27.08;15.13;;;;;;;;;;11050214;22;20034;-82
2022/11/26 17:12:01;;;;;;;28.17;14.90;;;;;;;;;;10402179;28;20053;-84
2022/11/26 17:17:01;;;;;;;24.10;14.52;;;;;;;;;;10629606;22;20056;-84
2022/11/26 17:22:03;;;;;;;26.35;14.98;;;;;;;;;;10401081;28;20034;-83
2022/11/26 17:27:13;;;;;;;32.20;16.50;;;;;;;;;;10341403;28;20059;-83
2022/11/26 17:32:18;;;;;;;32.53;16.73;;;;;;;;;;10376061;28;20034;-81
2022/11/26 17:37:23;;;;;;;35.40;18.02;;;;;;;;;;10360321;28;20050;-83
2022/11/26 17:42:23;;;;;;;26.55;15.35;;;;;;;;;;10368430;28;20062;-82
2022/11/26 17:47:25;;;;;;;26.48;14.15;;;;;;;;;;10359582;28;20035;-83
2022/11/26 17:52:25;;;;;;;26.90;14.80;;;;;;;;;;10344620;28;20069;-86
2022/11/26 17:57:27;;;;;;;27.42;15.68;;;;;;;;;;10360334;28;20447;-84
2022/11/26 18:02:27;;;;;;;25.13;13.48;;;;;;;;;;10358600;28;20041;-81
2022/11/26 18:07:27;;;;;;;27.52;16.27;;;;;;;;;;10354581;28;20804;-83
2022/11/26 18:12:34;;;;;;;27.48;15.70;;;;;;;;;;10371746;28;20014;-80
2022/11/26 18:17:34;;;;;;;28.10;15.20;;;;;;;;;;10387151;28;20083;-84
2022/11/26 18:22:35;;;;;;;31.07;15.13;;;;;;;;;;10374330;28;20052;-82
2022/11/26 18:27:35;;;;;;;29.65;15.55;;;;;;;;;;10348050;28;20804;-82
2022/11/26 18:32:36;;;;;;;36.28;20.88;;;;;;;;;;10351957;28;20065;-81
2022/11/26 18:37:38;;;;;;;32.28;19.88;;;;;;;;;;10365951;28;20053;-79
2022/11/26 18:42:38;;;;;;;39.90;22.35;;;;;;;;;;10364916;28;20037;-79
2022/11/26 18:47:39;;;;;;;31.92;19.88;;;;;;;;;;10330426;28;20050;-81
2022/11/26 18:52:39;;;;;;;32.25;19.65;;;;;;;;;;10315797;28;20442;-80
2022/11/26 18:57:40;;;;;;;30.58;18.58;;;;;;;;;;10377392;28;20100;-81
2022/11/26 19:02:51;;;;;;;33.55;19.70;;;;;;;;;;10366547;28;20046;-82
2022/11/26 19:07:51;;;;;;;34.28;19.33;;;;;;;;;;10359707;28;20045;-81
2022/11/26 19:12:54;;;;;;;41.65;20.58;;;;;;;;;;10355705;28;20499;-81
2022/11/26 19:17:54;;;;;;;37.10;20.63;;;;;;;;;;10345892;28;20064;-82
2022/11/26 19:22:55;;;;;;;36.15;19.33;;;;;;;;;;10371438;28;20517;-83
2022/11/26 19:27:55;;;;;;;39.72;19.70;;;;;;;;;;10372206;28;20466;-84
2022/11/26 19:32:55;;;;;;;35.47;19.07;;;;;;;;;;10372904;28;20050;-83
2022/11/26 19:37:56;;;;;;;31.05;16.67;;;;;;;;;;10351788;28;20370;-82
2022/11/26 19:42:56;;;;;;;41.83;19.30;;;;;;;;;;10339020;28;20065;-87
2022/11/26 19:47:57;;;;;;;31.07;16.23;;;;;;;;;;10373797;28;20109;-83
2022/11/26 19:52:57;;;;;;;29.95;16.60;;;;;;;;;;10357953;28;20385;-84
2022/11/26 19:57:58;;;;;;;25.70;14.95;;;;;;;;;;10351074;28;20130;-81
2022/11/26 20:02:59;;;;;;;32.25;19.17;;;;;;;;;;10354229;28;20105;-80
2022/11/26 20:07:59;;;;;;;32.42;18.10;;;;;;;;;;10348909;28;20112;-83
2022/11/26 20:13:01;;;;;;;32.35;17.13;;;;;;;;;;10354535;28;20038;-81
2022/11/26 20:18:01;;;;;;;33.83;18.38;;;;;;;;;;10351646;28;20508;-82
2022/11/26 20:23:02;;;;;;;32.90;17.83;;;;;;;;;;10330367;28;20044;-84
2022/11/26 20:28:03;;;;;;;29.52;18.63;;;;;;;;;;10358661;28;20034;-82
2022/11/26 20:33:03;;;;;;;30.80;18.17;;;;;;;;;;10349069;28;20500;-81
2022/11/26 20:38:04;;;;;;;33.70;17.00;;;;;;;;;;10352978;28;20046;-83
2022/11/26 20:43:04;;;;;;;29.87;15.97;;;;;;;;;;10367960;28;20037;-82
2022/11/26 20:48:05;;;;;;;25.73;14.50;;;;;;;;;;10350397;28;20332;-83
2022/11/26 20:53:06;;;;;;;27.58;14.57;;;;;;;;;;10352370;28;20329;-84
2022/11/26 20:58:07;;;;;;;30.42;17.05;;;;;;;;;;10328634;28;20090;-83
2022/11/26 21:03:10;;;;;;;28.90;15.52;;;;;;;;;;10353274;28;20113;-84
2022/11/26 21:08:11;;;;;;;31.25;18.02;;;;;;;;;;10347775;28;20038;-82
2022/11/26 21:13:12;;;;;;;35.42;18.73;;;;;;;;;;10362998;28;20095;-83
2022/11/26 21:18:13;;;;;;;35.88;19.17;;;;;;;;;;10355343;28;20049;-83
2022/11/26 21:23:13;;;;;;;33.70;19.92;;;;;;;;;;10347197;28;20596;-83
2022/11/26 21:28:14;;;;;;;35.87;20.47;;;;;;;;;;10351184;28;20118;-83
2022/11/26 21:33:14;;;;;;;36.37;19.93;;;;;;;;;;10370086;28;20265;-84
2022/11/26 21:38:14;;;;;;;31.35;17.92;;;;;;;;;;10381141;28;20319;-85
2022/11/26 21:43:15;;;;;;;38.07;20.37;;;;;;;;;;10389426;28;20221;-81
2022/11/26 21:48:15;;;;;;;36.95;21.40;;;;;;;;;;10378330;28;20366;-83
2022/11/26 21:53:15;;;;;;;38.33;21.30;;;;;;;;;;10360079;28;20078;-81
2022/11/26 21:58:16;;;;;;;40.60;22.88;;;;;;;;;;10371840;28;20319;-81
2022/11/26 22:03:16;;;;;;;36.35;19.58;;;;;;;;;;10332487;28;20042;-82
2022/11/26 22:08:16;;;;;;;38.95;20.85;;;;;;;;;;10349460;28;20088;-82
2022/11/26 22:13:17;;;;;;;35.43;19.00;;;;;;;;;;10343645;28;20399;-82
2022/11/26 22:18:17;;;;;;;33.77;17.90;;;;;;;;;;10358723;28;20316;-81
2022/11/26 22:23:18;;;;;;;29.23;16.00;;;;;;;;;;10338307;28;20384;-84
2022/11/26 22:28:18;;;;;;;32.28;15.93;;;;;;;;;;10340913;28;20296;-83
2022/11/26 22:33:19;;;;;;;27.03;16.60;;;;;;;;;;10345540;28;20038;-82
2022/11/26 22:38:19;;;;;;;33.13;18.42;;;;;;;;;;10336099;28;20320;-83
2022/11/26 22:43:19;;;;;;;35.03;18.90;;;;;;;;;;10354972;28;20446;-83
2022/11/26 22:48:20;;;;;;;29.02;17.60;;;;;;;;;;10345492;28;20660;-83
2022/11/26 22:53:20;;;;;;;38.78;19.80;;;;;;;;;;10334032;28;20120;-82
2022/11/26 22:58:25;;;;;;;36.50;19.40;;;;;;;;;;10338778;28;20050;-81
2022/11/26 23:03:26;;;;;;;35.72;20.00;;;;;;;;;;10348285;28;20133;-82
2022/11/26 23:08:27;;;;;;;34.20;18.85;;;;;;;;;;10378080;28;20031;-83
2022/11/26 23:13:27;;;;;;;34.67;19.20;;;;;;;;;;10382192;28;20034;-82
2022/11/26 23:18:27;;;;;;;32.27;18.47;;;;;;;;;;10354553;28;20117;-81
2022/11/26 23:23:28;;;;;;;38.60;20.10;;;;;;;;;;10330787;28;20861;-82
2022/11/26 23:28:29;;;;;;;31.40;19.63;;;;;;;;;;10326454;28;20297;-81
2022/11/26 23:33:30;;;;;;;31.65;18.88;;;;;;;;;;10333364;28;20045;-81
2022/11/26 23:38:30;;;;;;;36.17;20.08;;;;;;;;;;10337993;28;20056;-83
2022/11/26 23:43:32;;;;;;;37.70;21.37;;;;;;;;;;10313420;28;20035;-83
2022/11/26 23:48:32;;;;;;;45.95;22.88;;;;;;;;;;10322147;28;20296;-83
2022/11/26 23:53:34;;;;;;;34.20;17.88;;;;;;;;;;10310675;28;20038;-84
2022/11/26 23:58:35;;;;;;;33.15;19.23;;;;;;;;;;10336507;28;20053;-81
